KEBG

South Texas International At Edinburg Airport

Edinburg, Texas, USA
METAR KEBG 170155Z AUTO 30006KT 10SM SCT006 OVC010 10/09 A3005 RMK AO2 T01000086
Observed Flight Rules
Dec-17 @ 01:55 UTC (20 minutes ago) Marginal Visual Flight Rules
Wind Visibility Clouds
300° at 6 knots 10 miles
  • Scattered at 600' AGL
  • Overcast at 1,000' AGL
Temperatures Readings
Current 10°C / 50°F
Dewpoint 9°C / 48°F
Humidity 94%
Altimeter 30.05" Hg
Pressure 1018 hPa
Elevation 24
METAR KEBG 170155Z AUTO 30006KT 10SM SCT006 OVC010 10/09 A3005 RMK AO2 T01000086
Observed Flight Rules
Dec-17 @ 01:55 UTC
(20 minutes ago)
MVFR
Wind Visibility
300° at 6 knots 10 miles
Clouds
  • Scattered at 600' AGL
  • Overcast at 1,000' AGL
Temperature Dewpoint
10°C / 50°F 9°C / 48°F
Humidity Altimeter Pressure
94% 30.05" Hg 1018 hPa